sensor_id;sensor_type;location;lat;lon;timestamp;P1;durP1;ratioP1;P2;durP2;ratioP2
15990;SDS011;8100;50.994;4.538;2024-02-23T00:00:43;1.38;;;0.35;;
15990;SDS011;8100;50.994;4.538;2024-02-23T00:03:29;0.70;;;0.25;;
15990;SDS011;8100;50.994;4.538;2024-02-23T00:06:17;1.60;;;0.45;;
15990;SDS011;8100;50.994;4.538;2024-02-23T00:09:04;0.85;;;0.43;;
15990;SDS011;8100;50.994;4.538;2024-02-23T00:11:51;0.57;;;0.30;;
15990;SDS011;8100;50.994;4.538;2024-02-23T00:14:40;1.48;;;0.38;;
15990;SDS011;8100;50.994;4.538;2024-02-23T00:17:27;2.90;;;0.43;;
15990;SDS011;8100;50.994;4.538;2024-02-23T00:20:14;1.02;;;0.50;;
15990;SDS011;8100;50.994;4.538;2024-02-23T00:23:01;2.15;;;0.30;;
15990;SDS011;8100;50.994;4.538;2024-02-23T00:25:49;1.45;;;0.35;;
15990;SDS011;8100;50.994;4.538;2024-02-23T00:28:36;1.40;;;0.38;;
15990;SDS011;8100;50.994;4.538;2024-02-23T00:31:24;1.58;;;0.40;;
15990;SDS011;8100;50.994;4.538;2024-02-23T00:34:11;1.80;;;0.40;;
15990;SDS011;8100;50.994;4.538;2024-02-23T00:36:59;1.23;;;0.60;;
15990;SDS011;8100;50.994;4.538;2024-02-23T00:39:46;0.73;;;0.32;;
15990;SDS011;8100;50.994;4.538;2024-02-23T00:42:33;0.45;;;0.28;;
15990;SDS011;8100;50.994;4.538;2024-02-23T00:45:20;0.85;;;0.28;;
15990;SDS011;8100;50.994;4.538;2024-02-23T00:48:08;2.40;;;0.45;;
15990;SDS011;8100;50.994;4.538;2024-02-23T00:50:55;0.43;;;0.20;;
15990;SDS011;8100;50.994;4.538;2024-02-23T00:53:42;0.82;;;0.30;;
15990;SDS011;8100;50.994;4.538;2024-02-23T00:56:32;0.63;;;0.10;;
15990;SDS011;8100;50.994;4.538;2024-02-23T00:59:19;0.20;;;0.10;;
15990;SDS011;8100;50.994;4.538;2024-02-23T01:02:06;1.67;;;0.35;;
15990;SDS011;8100;50.994;4.538;2024-02-23T01:04:54;1.73;;;0.30;;
15990;SDS011;8100;50.994;4.538;2024-02-23T01:07:43;0.85;;;0.20;;
15990;SDS011;8100;50.994;4.538;2024-02-23T01:10:30;1.10;;;0.20;;
15990;SDS011;8100;50.994;4.538;2024-02-23T01:13:17;2.45;;;0.30;;
15990;SDS011;8100;50.994;4.538;2024-02-23T01:16:04;2.20;;;0.30;;
15990;SDS011;8100;50.994;4.538;2024-02-23T01:18:53;2.40;;;0.30;;
15990;SDS011;8100;50.994;4.538;2024-02-23T01:21:41;1.55;;;0.30;;
15990;SDS011;8100;50.994;4.538;2024-02-23T01:24:28;4.10;;;0.50;;
15990;SDS011;8100;50.994;4.538;2024-02-23T01:27:15;0.80;;;0.30;;
15990;SDS011;8100;50.994;4.538;2024-02-23T01:30:04;0.28;;;0.10;;
15990;SDS011;8100;50.994;4.538;2024-02-23T01:32:51;1.75;;;0.30;;
15990;SDS011;8100;50.994;4.538;2024-02-23T01:35:38;0.43;;;0.30;;
15990;SDS011;8100;50.994;4.538;2024-02-23T01:38:26;0.77;;;0.35;;
15990;SDS011;8100;50.994;4.538;2024-02-23T01:41:17;0.95;;;0.20;;
15990;SDS011;8100;50.994;4.538;2024-02-23T01:44:04;1.63;;;0.30;;
15990;SDS011;8100;50.994;4.538;2024-02-23T01:46:51;1.00;;;0.20;;
15990;SDS011;8100;50.994;4.538;2024-02-23T01:49:38;2.38;;;0.40;;
15990;SDS011;8100;50.994;4.538;2024-02-23T01:52:25;3.17;;;0.32;;
15990;SDS011;8100;50.994;4.538;2024-02-23T01:55:14;0.17;;;0.10;;
15990;SDS011;8100;50.994;4.538;2024-02-23T01:58:01;1.48;;;0.30;;
15990;SDS011;8100;50.994;4.538;2024-02-23T02:00:48;1.35;;;0.30;;
15990;SDS011;8100;50.994;4.538;2024-02-23T02:03:35;1.83;;;0.40;;
15990;SDS011;8100;50.994;4.538;2024-02-23T02:06:24;1.00;;;0.45;;
15990;SDS011;8100;50.994;4.538;2024-02-23T02:09:11;1.02;;;0.20;;
15990;SDS011;8100;50.994;4.538;2024-02-23T02:11:59;0.60;;;0.30;;
15990;SDS011;8100;50.994;4.538;2024-02-23T02:14:46;2.30;;;0.40;;
15990;SDS011;8100;50.994;4.538;2024-02-23T02:17:33;1.65;;;0.35;;
15990;SDS011;8100;50.994;4.538;2024-02-23T02:20:23;1.15;;;0.22;;
15990;SDS011;8100;50.994;4.538;2024-02-23T02:23:11;0.57;;;0.30;;
15990;SDS011;8100;50.994;4.538;2024-02-23T02:25:58;2.92;;;0.50;;
15990;SDS011;8100;50.994;4.538;2024-02-23T02:28:46;0.90;;;0.50;;
15990;SDS011;8100;50.994;4.538;2024-02-23T02:31:33;1.60;;;0.40;;
15990;SDS011;8100;50.994;4.538;2024-02-23T02:34:22;0.73;;;0.30;;
15990;SDS011;8100;50.994;4.538;2024-02-23T02:37:09;2.95;;;0.47;;
15990;SDS011;8100;50.994;4.538;2024-02-23T02:39:56;1.25;;;0.50;;
15990;SDS011;8100;50.994;4.538;2024-02-23T02:42:43;2.67;;;0.70;;
15990;SDS011;8100;50.994;4.538;2024-02-23T02:45:31;0.85;;;0.32;;
15990;SDS011;8100;50.994;4.538;2024-02-23T02:48:18;4.32;;;0.32;;
15990;SDS011;8100;50.994;4.538;2024-02-23T02:51:05;4.38;;;0.60;;
15990;SDS011;8100;50.994;4.538;2024-02-23T02:53:52;1.40;;;0.40;;
15990;SDS011;8100;50.994;4.538;2024-02-23T02:56:41;1.20;;;0.35;;
15990;SDS011;8100;50.994;4.538;2024-02-23T02:59:28;2.08;;;0.43;;
15990;SDS011;8100;50.994;4.538;2024-02-23T03:02:18;3.03;;;0.30;;
15990;SDS011;8100;50.994;4.538;2024-02-23T03:05:05;2.25;;;0.38;;
15990;SDS011;8100;50.994;4.538;2024-02-23T03:07:52;1.13;;;0.40;;
15990;SDS011;8100;50.994;4.538;2024-02-23T03:10:39;2.72;;;0.55;;
15990;SDS011;8100;50.994;4.538;2024-02-23T03:13:26;5.32;;;0.50;;
15990;SDS011;8100;50.994;4.538;2024-02-23T03:16:14;1.45;;;0.50;;
15990;SDS011;8100;50.994;4.538;2024-02-23T03:19:03;1.60;;;0.50;;
15990;SDS011;8100;50.994;4.538;2024-02-23T03:21:50;1.30;;;0.38;;
15990;SDS011;8100;50.994;4.538;2024-02-23T03:24:37;2.05;;;0.43;;
15990;SDS011;8100;50.994;4.538;2024-02-23T03:27:27;3.25;;;0.30;;
15990;SDS011;8100;50.994;4.538;2024-02-23T03:30:15;2.72;;;0.50;;
15990;SDS011;8100;50.994;4.538;2024-02-23T03:33:02;2.40;;;0.32;;
15990;SDS011;8100;50.994;4.538;2024-02-23T03:35:50;2.35;;;0.50;;
15990;SDS011;8100;50.994;4.538;2024-02-23T03:38:37;0.90;;;0.30;;
15990;SDS011;8100;50.994;4.538;2024-02-23T03:41:24;1.00;;;0.28;;
15990;SDS011;8100;50.994;4.538;2024-02-23T03:44:11;1.75;;;0.50;;
15990;SDS011;8100;50.994;4.538;2024-02-23T03:46:58;2.13;;;0.40;;
15990;SDS011;8100;50.994;4.538;2024-02-23T03:49:44;5.18;;;0.50;;
15990;SDS011;8100;50.994;4.538;2024-02-23T03:52:33;0.60;;;0.25;;
15990;SDS011;8100;50.994;4.538;2024-02-23T03:55:20;4.18;;;0.70;;
15990;SDS011;8100;50.994;4.538;2024-02-23T03:58:07;1.00;;;0.35;;
15990;SDS011;8100;50.994;4.538;2024-02-23T04:00:54;2.95;;;0.50;;
15990;SDS011;8100;50.994;4.538;2024-02-23T04:03:41;3.15;;;0.70;;
15990;SDS011;8100;50.994;4.538;2024-02-23T04:06:27;1.98;;;0.50;;
15990;SDS011;8100;50.994;4.538;2024-02-23T04:09:16;2.30;;;0.60;;
15990;SDS011;8100;50.994;4.538;2024-02-23T04:12:03;1.70;;;0.52;;
15990;SDS011;8100;50.994;4.538;2024-02-23T04:14:52;3.83;;;0.68;;
15990;SDS011;8100;50.994;4.538;2024-02-23T04:17:39;3.67;;;0.70;;
15990;SDS011;8100;50.994;4.538;2024-02-23T04:20:26;2.10;;;0.77;;
15990;SDS011;8100;50.994;4.538;2024-02-23T04:23:12;3.65;;;1.05;;
15990;SDS011;8100;50.994;4.538;2024-02-23T04:26:01;3.88;;;1.05;;
15990;SDS011;8100;50.994;4.538;2024-02-23T04:28:48;4.65;;;0.85;;
15990;SDS011;8100;50.994;4.538;2024-02-23T04:31:36;4.05;;;0.82;;
15990;SDS011;8100;50.994;4.538;2024-02-23T04:34:23;3.20;;;0.60;;
15990;SDS011;8100;50.994;4.538;2024-02-23T04:37:10;3.10;;;0.90;;
15990;SDS011;8100;50.994;4.538;2024-02-23T04:39:56;2.30;;;0.85;;
15990;SDS011;8100;50.994;4.538;2024-02-23T04:42:45;2.40;;;0.70;;
15990;SDS011;8100;50.994;4.538;2024-02-23T04:45:32;3.55;;;0.70;;
15990;SDS011;8100;50.994;4.538;2024-02-23T04:48:19;1.73;;;0.55;;
15990;SDS011;8100;50.994;4.538;2024-02-23T04:51:06;3.10;;;0.82;;
15990;SDS011;8100;50.994;4.538;2024-02-23T04:53:55;3.03;;;0.80;;
15990;SDS011;8100;50.994;4.538;2024-02-23T04:56:42;4.40;;;0.70;;
15990;SDS011;8100;50.994;4.538;2024-02-23T04:59:30;3.67;;;0.50;;
15990;SDS011;8100;50.994;4.538;2024-02-23T05:02:17;3.50;;;0.80;;
15990;SDS011;8100;50.994;4.538;2024-02-23T05:05:04;3.95;;;0.98;;
15990;SDS011;8100;50.994;4.538;2024-02-23T05:07:52;2.92;;;0.60;;
15990;SDS011;8100;50.994;4.538;2024-02-23T05:10:39;2.60;;;0.60;;
15990;SDS011;8100;50.994;4.538;2024-02-23T05:13:25;4.70;;;0.93;;
15990;SDS011;8100;50.994;4.538;2024-02-23T05:16:14;7.07;;;1.00;;
15990;SDS011;8100;50.994;4.538;2024-02-23T05:19:01;1.60;;;0.65;;
15990;SDS011;8100;50.994;4.538;2024-02-23T05:21:48;3.60;;;0.90;;
15990;SDS011;8100;50.994;4.538;2024-02-23T05:24:35;2.50;;;0.80;;
15990;SDS011;8100;50.994;4.538;2024-02-23T05:27:22;2.25;;;0.88;;
15990;SDS011;8100;50.994;4.538;2024-02-23T05:30:09;2.35;;;0.95;;
15990;SDS011;8100;50.994;4.538;2024-02-23T05:32:58;4.53;;;0.70;;
15990;SDS011;8100;50.994;4.538;2024-02-23T05:35:48;6.47;;;0.95;;
15990;SDS011;8100;50.994;4.538;2024-02-23T05:38:35;2.25;;;0.70;;
15990;SDS011;8100;50.994;4.538;2024-02-23T05:41:22;2.58;;;0.80;;
15990;SDS011;8100;50.994;4.538;2024-02-23T05:44:08;1.70;;;0.50;;
15990;SDS011;8100;50.994;4.538;2024-02-23T05:46:55;2.58;;;0.50;;
15990;SDS011;8100;50.994;4.538;2024-02-23T05:49:44;3.97;;;0.77;;
15990;SDS011;8100;50.994;4.538;2024-02-23T05:52:31;1.08;;;0.50;;
15990;SDS011;8100;50.994;4.538;2024-02-23T05:55:18;2.80;;;0.70;;
15990;SDS011;8100;50.994;4.538;2024-02-23T05:58:05;2.60;;;0.60;;
15990;SDS011;8100;50.994;4.538;2024-02-23T06:00:52;2.95;;;0.50;;
15990;SDS011;8100;50.994;4.538;2024-02-23T06:03:39;7.38;;;0.90;;
15990;SDS011;8100;50.994;4.538;2024-02-23T06:06:28;5.90;;;0.90;;
15990;SDS011;8100;50.994;4.538;2024-02-23T06:09:16;3.60;;;0.70;;
15990;SDS011;8100;50.994;4.538;2024-02-23T06:12:04;2.50;;;0.60;;
15990;SDS011;8100;50.994;4.538;2024-02-23T06:14:52;1.50;;;0.60;;
15990;SDS011;8100;50.994;4.538;2024-02-23T06:17:40;3.33;;;0.75;;
15990;SDS011;8100;50.994;4.538;2024-02-23T06:20:27;2.10;;;0.60;;
15990;SDS011;8100;50.994;4.538;2024-02-23T06:23:16;4.63;;;0.90;;
15990;SDS011;8100;50.994;4.538;2024-02-23T06:26:03;2.75;;;0.68;;
15990;SDS011;8100;50.994;4.538;2024-02-23T06:28:50;3.65;;;0.70;;
15990;SDS011;8100;50.994;4.538;2024-02-23T06:31:37;2.65;;;0.65;;
15990;SDS011;8100;50.994;4.538;2024-02-23T06:34:24;2.00;;;0.50;;
15990;SDS011;8100;50.994;4.538;2024-02-23T06:37:11;5.10;;;0.80;;
15990;SDS011;8100;50.994;4.538;2024-02-23T06:40:00;1.58;;;0.40;;
15990;SDS011;8100;50.994;4.538;2024-02-23T06:42:47;1.77;;;0.50;;
15990;SDS011;8100;50.994;4.538;2024-02-23T06:45:35;4.30;;;0.60;;
15990;SDS011;8100;50.994;4.538;2024-02-23T06:48:23;1.98;;;0.40;;
15990;SDS011;8100;50.994;4.538;2024-02-23T06:51:11;1.38;;;0.57;;
15990;SDS011;8100;50.994;4.538;2024-02-23T06:53:58;2.15;;;0.45;;
15990;SDS011;8100;50.994;4.538;2024-02-23T06:56:46;3.42;;;0.57;;
15990;SDS011;8100;50.994;4.538;2024-02-23T06:59:33;1.73;;;0.30;;
15990;SDS011;8100;50.994;4.538;2024-02-23T07:02:20;3.03;;;0.55;;
15990;SDS011;8100;50.994;4.538;2024-02-23T07:05:07;2.15;;;0.43;;
15990;SDS011;8100;50.994;4.538;2024-02-23T07:07:54;3.03;;;0.70;;
15990;SDS011;8100;50.994;4.538;2024-02-23T07:10:41;1.63;;;0.50;;
15990;SDS011;8100;50.994;4.538;2024-02-23T07:13:29;2.20;;;0.38;;
15990;SDS011;8100;50.994;4.538;2024-02-23T07:16:17;1.17;;;0.47;;
15990;SDS011;8100;50.994;4.538;2024-02-23T07:19:04;2.35;;;0.52;;
15990;SDS011;8100;50.994;4.538;2024-02-23T07:21:52;1.95;;;0.75;;
15990;SDS011;8100;50.994;4.538;2024-02-23T07:24:39;2.03;;;0.50;;
15990;SDS011;8100;50.994;4.538;2024-02-23T07:27:26;1.05;;;0.32;;
15990;SDS011;8100;50.994;4.538;2024-02-23T07:30:14;3.60;;;0.73;;
15990;SDS011;8100;50.994;4.538;2024-02-23T07:33:02;2.08;;;0.38;;
15990;SDS011;8100;50.994;4.538;2024-02-23T07:35:49;1.80;;;0.43;;
15990;SDS011;8100;50.994;4.538;2024-02-23T07:38:36;2.33;;;0.35;;
15990;SDS011;8100;50.994;4.538;2024-02-23T07:41:23;3.45;;;0.65;;
15990;SDS011;8100;50.994;4.538;2024-02-23T07:44:10;3.15;;;0.60;;
15990;SDS011;8100;50.994;4.538;2024-02-23T07:46:59;3.83;;;0.70;;
15990;SDS011;8100;50.994;4.538;2024-02-23T07:49:45;2.47;;;0.60;;
15990;SDS011;8100;50.994;4.538;2024-02-23T07:52:32;1.45;;;0.50;;
15990;SDS011;8100;50.994;4.538;2024-02-23T07:55:19;2.03;;;0.40;;
15990;SDS011;8100;50.994;4.538;2024-02-23T07:58:07;2.75;;;0.60;;
15990;SDS011;8100;50.994;4.538;2024-02-23T08:00:54;3.78;;;0.40;;
15990;SDS011;8100;50.994;4.538;2024-02-23T08:03:43;1.25;;;0.50;;
15990;SDS011;8100;50.994;4.538;2024-02-23T08:06:30;5.15;;;0.65;;
15990;SDS011;8100;50.994;4.538;2024-02-23T08:09:17;0.98;;;0.30;;
15990;SDS011;8100;50.994;4.538;2024-02-23T08:12:04;2.42;;;0.50;;
15990;SDS011;8100;50.994;4.538;2024-02-23T08:14:51;2.58;;;0.45;;
15990;SDS011;8100;50.994;4.538;2024-02-23T08:17:39;3.78;;;0.60;;
15990;SDS011;8100;50.994;4.538;2024-02-23T08:20:27;2.08;;;0.57;;
15990;SDS011;8100;50.994;4.538;2024-02-23T08:23:14;2.38;;;0.50;;
15990;SDS011;8100;50.994;4.538;2024-02-23T08:26:01;3.00;;;0.63;;
15990;SDS011;8100;50.994;4.538;2024-02-23T08:28:48;3.15;;;0.70;;
15990;SDS011;8100;50.994;4.538;2024-02-23T08:31:35;3.05;;;0.40;;
15990;SDS011;8100;50.994;4.538;2024-02-23T08:34:22;1.55;;;0.50;;
15990;SDS011;8100;50.994;4.538;2024-02-23T08:37:11;2.28;;;0.60;;
15990;SDS011;8100;50.994;4.538;2024-02-23T08:39:58;1.92;;;0.70;;
15990;SDS011;8100;50.994;4.538;2024-02-23T08:42:46;0.88;;;0.40;;
15990;SDS011;8100;50.994;4.538;2024-02-23T08:45:35;1.60;;;0.40;;
15990;SDS011;8100;50.994;4.538;2024-02-23T08:48:21;2.70;;;0.45;;
15990;SDS011;8100;50.994;4.538;2024-02-23T08:51:08;2.03;;;0.38;;
15990;SDS011;8100;50.994;4.538;2024-02-23T08:53:57;2.55;;;0.50;;
15990;SDS011;8100;50.994;4.538;2024-02-23T08:56:48;1.38;;;0.45;;
15990;SDS011;8100;50.994;4.538;2024-02-23T08:59:35;1.15;;;0.45;;
15990;SDS011;8100;50.994;4.538;2024-02-23T09:02:22;3.97;;;0.60;;
15990;SDS011;8100;50.994;4.538;2024-02-23T09:05:09;1.27;;;0.40;;
15990;SDS011;8100;50.994;4.538;2024-02-23T09:07:56;2.03;;;0.50;;
15990;SDS011;8100;50.994;4.538;2024-02-23T09:10:45;2.85;;;0.50;;
15990;SDS011;8100;50.994;4.538;2024-02-23T09:13:32;1.55;;;0.50;;
15990;SDS011;8100;50.994;4.538;2024-02-23T09:16:19;1.85;;;0.70;;
15990;SDS011;8100;50.994;4.538;2024-02-23T09:19:08;0.40;;;0.28;;
15990;SDS011;8100;50.994;4.538;2024-02-23T09:21:55;0.93;;;0.40;;
15990;SDS011;8100;50.994;4.538;2024-02-23T09:24:42;2.40;;;0.55;;
15990;SDS011;8100;50.994;4.538;2024-02-23T09:27:31;1.70;;;0.52;;
15990;SDS011;8100;50.994;4.538;2024-02-23T09:30:18;1.40;;;0.43;;
15990;SDS011;8100;50.994;4.538;2024-02-23T09:33:06;1.73;;;0.55;;
15990;SDS011;8100;50.994;4.538;2024-02-23T09:35:53;2.15;;;0.50;;
15990;SDS011;8100;50.994;4.538;2024-02-23T09:38:40;2.65;;;0.75;;
15990;SDS011;8100;50.994;4.538;2024-02-23T09:41:27;0.95;;;0.30;;
15990;SDS011;8100;50.994;4.538;2024-02-23T09:44:15;1.15;;;0.35;;
15990;SDS011;8100;50.994;4.538;2024-02-23T09:47:05;1.85;;;0.65;;
15990;SDS011;8100;50.994;4.538;2024-02-23T09:49:55;2.40;;;0.55;;
15990;SDS011;8100;50.994;4.538;2024-02-23T09:52:42;1.25;;;0.60;;
15990;SDS011;8100;50.994;4.538;2024-02-23T09:55:30;4.07;;;0.57;;
15990;SDS011;8100;50.994;4.538;2024-02-23T09:58:17;1.00;;;0.50;;
15990;SDS011;8100;50.994;4.538;2024-02-23T10:01:07;2.83;;;0.60;;
15990;SDS011;8100;50.994;4.538;2024-02-23T10:03:57;1.45;;;0.50;;
15990;SDS011;8100;50.994;4.538;2024-02-23T10:06:44;3.05;;;0.68;;
15990;SDS011;8100;50.994;4.538;2024-02-23T10:09:31;1.80;;;0.50;;
15990;SDS011;8100;50.994;4.538;2024-02-23T10:12:18;1.88;;;0.65;;
15990;SDS011;8100;50.994;4.538;2024-02-23T10:15:05;2.00;;;0.50;;
15990;SDS011;8100;50.994;4.538;2024-02-23T10:17:54;3.50;;;0.70;;
15990;SDS011;8100;50.994;4.538;2024-02-23T10:20:41;2.15;;;0.90;;
15990;SDS011;8100;50.994;4.538;2024-02-23T10:23:28;0.82;;;0.43;;
15990;SDS011;8100;50.994;4.538;2024-02-23T10:26:15;2.92;;;0.80;;
15990;SDS011;8100;50.994;4.538;2024-02-23T10:29:03;2.03;;;0.50;;
15990;SDS011;8100;50.994;4.538;2024-02-23T10:31:51;3.17;;;0.45;;
15990;SDS011;8100;50.994;4.538;2024-02-23T10:34:39;2.42;;;0.50;;
15990;SDS011;8100;50.994;4.538;2024-02-23T10:37:29;0.63;;;0.40;;
15990;SDS011;8100;50.994;4.538;2024-02-23T10:40:18;1.55;;;0.80;;
15990;SDS011;8100;50.994;4.538;2024-02-23T10:43:05;2.17;;;1.05;;
15990;SDS011;8100;50.994;4.538;2024-02-23T10:45:58;3.63;;;1.20;;
15990;SDS011;8100;50.994;4.538;2024-02-23T10:48:47;6.00;;;0.80;;
15990;SDS011;8100;50.994;4.538;2024-02-23T10:51:37;3.65;;;1.05;;
15990;SDS011;8100;50.994;4.538;2024-02-23T10:54:25;3.22;;;0.77;;
15990;SDS011;8100;50.994;4.538;2024-02-23T10:57:13;1.38;;;0.50;;
15990;SDS011;8100;50.994;4.538;2024-02-23T11:00:00;1.63;;;0.60;;
15990;SDS011;8100;50.994;4.538;2024-02-23T11:02:51;0.95;;;0.50;;
15990;SDS011;8100;50.994;4.538;2024-02-23T11:05:39;3.05;;;0.60;;
15990;SDS011;8100;50.994;4.538;2024-02-23T11:08:29;2.53;;;0.70;;
15990;SDS011;8100;50.994;4.538;2024-02-23T11:11:17;3.20;;;0.70;;
15990;SDS011;8100;50.994;4.538;2024-02-23T11:14:07;1.52;;;0.52;;
15990;SDS011;8100;50.994;4.538;2024-02-23T11:16:55;3.58;;;0.80;;
15990;SDS011;8100;50.994;4.538;2024-02-23T11:19:42;1.30;;;0.60;;
15990;SDS011;8100;50.994;4.538;2024-02-23T11:22:35;1.80;;;0.63;;
15990;SDS011;8100;50.994;4.538;2024-02-23T11:25:27;1.83;;;0.80;;
15990;SDS011;8100;50.994;4.538;2024-02-23T11:28:23;2.05;;;0.70;;
15990;SDS011;8100;50.994;4.538;2024-02-23T11:31:11;4.07;;;1.10;;
15990;SDS011;8100;50.994;4.538;2024-02-23T11:33:59;3.00;;;0.98;;
15990;SDS011;8100;50.994;4.538;2024-02-23T11:36:46;3.85;;;0.80;;
15990;SDS011;8100;50.994;4.538;2024-02-23T11:39:38;2.08;;;0.70;;
15990;SDS011;8100;50.994;4.538;2024-02-23T11:42:27;3.25;;;0.98;;
15990;SDS011;8100;50.994;4.538;2024-02-23T11:45:14;2.92;;;0.70;;
15990;SDS011;8100;50.994;4.538;2024-02-23T11:48:01;1.45;;;0.77;;
15990;SDS011;8100;50.994;4.538;2024-02-23T11:50:48;1.35;;;0.65;;
15990;SDS011;8100;50.994;4.538;2024-02-23T11:53:35;3.25;;;0.65;;
15990;SDS011;8100;50.994;4.538;2024-02-23T11:56:23;4.30;;;0.70;;
15990;SDS011;8100;50.994;4.538;2024-02-23T11:59:11;1.77;;;0.73;;
15990;SDS011;8100;50.994;4.538;2024-02-23T12:01:59;1.05;;;0.60;;
15990;SDS011;8100;50.994;4.538;2024-02-23T12:04:46;3.90;;;0.75;;
15990;SDS011;8100;50.994;4.538;2024-02-23T12:07:33;1.55;;;0.50;;
15990;SDS011;8100;50.994;4.538;2024-02-23T12:10:21;2.25;;;0.90;;
15990;SDS011;8100;50.994;4.538;2024-02-23T12:13:08;5.05;;;0.80;;
15990;SDS011;8100;50.994;4.538;2024-02-23T12:15:56;2.00;;;0.63;;
15990;SDS011;8100;50.994;4.538;2024-02-23T12:18:43;0.80;;;0.57;;
15990;SDS011;8100;50.994;4.538;2024-02-23T12:21:33;1.85;;;0.80;;
15990;SDS011;8100;50.994;4.538;2024-02-23T12:24:20;1.17;;;0.85;;
15990;SDS011;8100;50.994;4.538;2024-02-23T12:27:11;1.60;;;0.73;;
15990;SDS011;8100;50.994;4.538;2024-02-23T12:30:02;3.00;;;1.15;;
15990;SDS011;8100;50.994;4.538;2024-02-23T12:32:51;2.10;;;0.80;;
15990;SDS011;8100;50.994;4.538;2024-02-23T12:35:38;1.85;;;0.85;;
15990;SDS011;8100;50.994;4.538;2024-02-23T12:38:26;1.88;;;0.70;;
15990;SDS011;8100;50.994;4.538;2024-02-23T12:41:13;3.13;;;1.00;;
15990;SDS011;8100;50.994;4.538;2024-02-23T12:44:00;2.17;;;0.73;;
15990;SDS011;8100;50.994;4.538;2024-02-23T12:46:47;3.30;;;0.98;;
15990;SDS011;8100;50.994;4.538;2024-02-23T12:49:35;2.45;;;0.90;;
15990;SDS011;8100;50.994;4.538;2024-02-23T12:52:22;3.08;;;0.90;;
15990;SDS011;8100;50.994;4.538;2024-02-23T12:55:09;2.67;;;0.90;;
15990;SDS011;8100;50.994;4.538;2024-02-23T12:57:56;1.58;;;0.90;;
15990;SDS011;8100;50.994;4.538;2024-02-23T13:00:43;3.08;;;1.00;;
15990;SDS011;8100;50.994;4.538;2024-02-23T13:03:29;2.38;;;0.70;;
15990;SDS011;8100;50.994;4.538;2024-02-23T13:06:18;2.83;;;1.27;;
15990;SDS011;8100;50.994;4.538;2024-02-23T13:09:05;4.78;;;0.93;;
15990;SDS011;8100;50.994;4.538;2024-02-23T13:11:54;2.80;;;0.98;;
15990;SDS011;8100;50.994;4.538;2024-02-23T13:14:41;3.67;;;0.85;;
15990;SDS011;8100;50.994;4.538;2024-02-23T13:17:28;2.75;;;0.98;;
15990;SDS011;8100;50.994;4.538;2024-02-23T13:20:15;1.80;;;0.77;;
15990;SDS011;8100;50.994;4.538;2024-02-23T13:23:03;1.02;;;0.70;;
15990;SDS011;8100;50.994;4.538;2024-02-23T13:25:52;2.55;;;0.82;;
15990;SDS011;8100;50.994;4.538;2024-02-23T13:28:39;2.47;;;0.60;;
15990;SDS011;8100;50.994;4.538;2024-02-23T13:31:26;1.52;;;0.70;;
15990;SDS011;8100;50.994;4.538;2024-02-23T13:34:13;2.03;;;0.55;;
15990;SDS011;8100;50.994;4.538;2024-02-23T13:37:02;4.65;;;0.95;;
15990;SDS011;8100;50.994;4.538;2024-02-23T13:39:50;3.22;;;1.02;;
15990;SDS011;8100;50.994;4.538;2024-02-23T13:42:37;1.65;;;0.85;;
15990;SDS011;8100;50.994;4.538;2024-02-23T13:45:24;3.22;;;1.15;;
15990;SDS011;8100;50.994;4.538;2024-02-23T13:48:11;1.83;;;1.02;;
15990;SDS011;8100;50.994;4.538;2024-02-23T13:50:59;12.30;;;1.02;;
15990;SDS011;8100;50.994;4.538;2024-02-23T13:53:48;0.95;;;0.60;;
15990;SDS011;8100;50.994;4.538;2024-02-23T13:56:36;3.35;;;1.00;;
15990;SDS011;8100;50.994;4.538;2024-02-23T13:59:23;1.65;;;0.75;;
15990;SDS011;8100;50.994;4.538;2024-02-23T14:02:10;2.65;;;0.88;;
15990;SDS011;8100;50.994;4.538;2024-02-23T14:05:00;0.65;;;0.50;;
15990;SDS011;8100;50.994;4.538;2024-02-23T14:07:49;3.58;;;0.68;;
15990;SDS011;8100;50.994;4.538;2024-02-23T14:10:36;3.35;;;1.10;;
15990;SDS011;8100;50.994;4.538;2024-02-23T14:13:24;0.82;;;0.52;;
15990;SDS011;8100;50.994;4.538;2024-02-23T14:16:11;0.93;;;0.70;;
15990;SDS011;8100;50.994;4.538;2024-02-23T14:18:58;1.77;;;0.60;;
15990;SDS011;8100;50.994;4.538;2024-02-23T14:21:45;2.70;;;0.52;;
15990;SDS011;8100;50.994;4.538;2024-02-23T14:24:33;0.82;;;0.40;;
15990;SDS011;8100;50.994;4.538;2024-02-23T14:27:20;1.10;;;0.50;;
15990;SDS011;8100;50.994;4.538;2024-02-23T14:30:09;1.23;;;0.47;;
15990;SDS011;8100;50.994;4.538;2024-02-23T14:32:56;1.70;;;0.47;;
15990;SDS011;8100;50.994;4.538;2024-02-23T14:35:44;1.90;;;0.30;;
15990;SDS011;8100;50.994;4.538;2024-02-23T14:38:31;1.70;;;0.65;;
15990;SDS011;8100;50.994;4.538;2024-02-23T14:41:17;1.52;;;0.82;;
15990;SDS011;8100;50.994;4.538;2024-02-23T14:44:04;3.28;;;0.60;;
15990;SDS011;8100;50.994;4.538;2024-02-23T14:46:53;0.98;;;0.52;;
15990;SDS011;8100;50.994;4.538;2024-02-23T14:49:40;1.70;;;0.60;;
15990;SDS011;8100;50.994;4.538;2024-02-23T14:52:27;1.45;;;0.55;;
15990;SDS011;8100;50.994;4.538;2024-02-23T14:55:13;1.90;;;0.50;;
15990;SDS011;8100;50.994;4.538;2024-02-23T14:58:00;1.50;;;0.60;;
15990;SDS011;8100;50.994;4.538;2024-02-23T15:00:47;1.70;;;0.50;;
15990;SDS011;8100;50.994;4.538;2024-02-23T15:03:36;2.45;;;0.52;;
15990;SDS011;8100;50.994;4.538;2024-02-23T15:06:23;1.52;;;0.50;;
15990;SDS011;8100;50.994;4.538;2024-02-23T15:09:10;2.13;;;0.80;;
15990;SDS011;8100;50.994;4.538;2024-02-23T15:11:57;2.83;;;1.17;;
15990;SDS011;8100;50.994;4.538;2024-02-23T15:14:44;0.65;;;0.38;;
15990;SDS011;8100;50.994;4.538;2024-02-23T15:17:31;1.05;;;0.40;;
15990;SDS011;8100;50.994;4.538;2024-02-23T15:20:19;1.17;;;0.35;;
15990;SDS011;8100;50.994;4.538;2024-02-23T15:23:06;1.13;;;0.50;;
15990;SDS011;8100;50.994;4.538;2024-02-23T15:25:53;1.20;;;0.50;;
15990;SDS011;8100;50.994;4.538;2024-02-23T15:28:40;2.72;;;0.80;;
15990;SDS011;8100;50.994;4.538;2024-02-23T15:31:27;1.58;;;0.57;;
15990;SDS011;8100;50.994;4.538;2024-02-23T15:34:14;1.55;;;0.45;;
15990;SDS011;8100;50.994;4.538;2024-02-23T15:37:02;0.63;;;0.30;;
15990;SDS011;8100;50.994;4.538;2024-02-23T15:39:49;0.98;;;0.50;;
15990;SDS011;8100;50.994;4.538;2024-02-23T15:42:36;0.93;;;0.30;;
15990;SDS011;8100;50.994;4.538;2024-02-23T15:45:24;1.60;;;0.45;;
15990;SDS011;8100;50.994;4.538;2024-02-23T15:48:10;2.45;;;0.40;;
15990;SDS011;8100;50.994;4.538;2024-02-23T15:50:58;2.45;;;0.32;;
15990;SDS011;8100;50.994;4.538;2024-02-23T15:53:46;0.98;;;0.35;;
15990;SDS011;8100;50.994;4.538;2024-02-23T15:56:33;1.55;;;0.52;;
15990;SDS011;8100;50.994;4.538;2024-02-23T15:59:21;2.67;;;0.50;;
15990;SDS011;8100;50.994;4.538;2024-02-23T16:02:08;0.50;;;0.35;;
15990;SDS011;8100;50.994;4.538;2024-02-23T16:04:55;0.88;;;0.40;;
15990;SDS011;8100;50.994;4.538;2024-02-23T16:07:42;1.00;;;0.60;;
15990;SDS011;8100;50.994;4.538;2024-02-23T16:10:32;2.20;;;0.43;;
15990;SDS011;8100;50.994;4.538;2024-02-23T16:13:19;1.27;;;0.43;;
15990;SDS011;8100;50.994;4.538;2024-02-23T16:16:06;1.52;;;0.50;;
15990;SDS011;8100;50.994;4.538;2024-02-23T16:18:54;0.47;;;0.40;;
15990;SDS011;8100;50.994;4.538;2024-02-23T16:21:41;0.88;;;0.40;;
15990;SDS011;8100;50.994;4.538;2024-02-23T16:24:28;1.33;;;0.47;;
15990;SDS011;8100;50.994;4.538;2024-02-23T16:27:17;0.77;;;0.57;;
15990;SDS011;8100;50.994;4.538;2024-02-23T16:30:04;0.75;;;0.40;;
15990;SDS011;8100;50.994;4.538;2024-02-23T16:32:52;1.20;;;0.40;;
15990;SDS011;8100;50.994;4.538;2024-02-23T16:35:38;1.15;;;0.55;;
15990;SDS011;8100;50.994;4.538;2024-02-23T16:38:25;1.98;;;0.40;;
15990;SDS011;8100;50.994;4.538;2024-02-23T16:41:12;2.67;;;0.50;;
15990;SDS011;8100;50.994;4.538;2024-02-23T16:44:01;1.85;;;0.50;;
15990;SDS011;8100;50.994;4.538;2024-02-23T16:46:48;2.50;;;1.00;;
15990;SDS011;8100;50.994;4.538;2024-02-23T16:49:36;1.23;;;0.50;;
15990;SDS011;8100;50.994;4.538;2024-02-23T16:52:23;0.80;;;0.40;;
15990;SDS011;8100;50.994;4.538;2024-02-23T16:55:10;1.60;;;0.60;;
15990;SDS011;8100;50.994;4.538;2024-02-23T16:57:57;1.55;;;0.57;;
15990;SDS011;8100;50.994;4.538;2024-02-23T17:00:45;2.28;;;0.77;;
15990;SDS011;8100;50.994;4.538;2024-02-23T17:03:32;0.80;;;0.45;;